sensor_id;sensor_type;location;lat;lon;timestamp;P1;durP1;ratioP1;P2;durP2;ratioP2
29984;SDS011;17387;42.690;23.328;2022-12-18T00:02:09;14.32;;;10.13;;
29984;SDS011;17387;42.690;23.328;2022-12-18T00:04:34;15.27;;;11.18;;
29984;SDS011;17387;42.690;23.328;2022-12-18T00:07:00;14.63;;;10.43;;
29984;SDS011;17387;42.690;23.328;2022-12-18T00:09:25;15.45;;;11.23;;
29984;SDS011;17387;42.690;23.328;2022-12-18T00:11:50;17.48;;;11.98;;
29984;SDS011;17387;42.690;23.328;2022-12-18T00:14:16;16.30;;;10.05;;
29984;SDS011;17387;42.690;23.328;2022-12-18T00:16:44;15.05;;;11.00;;
29984;SDS011;17387;42.690;23.328;2022-12-18T00:19:11;17.70;;;11.68;;
29984;SDS011;17387;42.690;23.328;2022-12-18T00:21:37;16.92;;;11.88;;
29984;SDS011;17387;42.690;23.328;2022-12-18T00:24:04;17.75;;;12.68;;
29984;SDS011;17387;42.690;23.328;2022-12-18T00:26:32;16.67;;;10.45;;
29984;SDS011;17387;42.690;23.328;2022-12-18T00:28:59;15.38;;;10.25;;
29984;SDS011;17387;42.690;23.328;2022-12-18T00:31:26;16.98;;;12.20;;
29984;SDS011;17387;42.690;23.328;2022-12-18T00:33:55;17.42;;;12.55;;
29984;SDS011;17387;42.690;23.328;2022-12-18T00:36:23;15.27;;;11.50;;
29984;SDS011;17387;42.690;23.328;2022-12-18T00:38:50;18.98;;;11.30;;
29984;SDS011;17387;42.690;23.328;2022-12-18T00:41:16;18.75;;;12.60;;
29984;SDS011;17387;42.690;23.328;2022-12-18T00:44:03;18.10;;;11.57;;
29984;SDS011;17387;42.690;23.328;2022-12-18T00:46:29;16.92;;;11.20;;
29984;SDS011;17387;42.690;23.328;2022-12-18T00:48:55;14.98;;;9.60;;
29984;SDS011;17387;42.690;23.328;2022-12-18T00:51:21;15.88;;;10.52;;
29984;SDS011;17387;42.690;23.328;2022-12-18T00:53:46;15.23;;;11.13;;
29984;SDS011;17387;42.690;23.328;2022-12-18T00:56:11;18.10;;;11.63;;
29984;SDS011;17387;42.690;23.328;2022-12-18T00:58:37;16.67;;;10.77;;
29984;SDS011;17387;42.690;23.328;2022-12-18T01:01:05;16.48;;;10.63;;
29984;SDS011;17387;42.690;23.328;2022-12-18T01:03:32;17.48;;;12.13;;
29984;SDS011;17387;42.690;23.328;2022-12-18T01:05:58;16.63;;;10.68;;
29984;SDS011;17387;42.690;23.328;2022-12-18T01:08:23;15.18;;;10.82;;
29984;SDS011;17387;42.690;23.328;2022-12-18T01:10:49;17.38;;;11.77;;
29984;SDS011;17387;42.690;23.328;2022-12-18T01:13:14;17.73;;;12.38;;
29984;SDS011;17387;42.690;23.328;2022-12-18T01:15:40;17.75;;;11.88;;
29984;SDS011;17387;42.690;23.328;2022-12-18T01:18:06;17.70;;;12.15;;
29984;SDS011;17387;42.690;23.328;2022-12-18T01:20:32;15.70;;;11.30;;
29984;SDS011;17387;42.690;23.328;2022-12-18T01:22:57;19.50;;;13.23;;
29984;SDS011;17387;42.690;23.328;2022-12-18T01:25:23;19.67;;;13.02;;
29984;SDS011;17387;42.690;23.328;2022-12-18T01:27:48;21.48;;;14.35;;
29984;SDS011;17387;42.690;23.328;2022-12-18T01:30:14;22.95;;;14.65;;
29984;SDS011;17387;42.690;23.328;2022-12-18T01:32:40;21.58;;;13.77;;
29984;SDS011;17387;42.690;23.328;2022-12-18T01:35:05;20.95;;;14.20;;
29984;SDS011;17387;42.690;23.328;2022-12-18T01:37:32;22.13;;;14.60;;
29984;SDS011;17387;42.690;23.328;2022-12-18T01:39:57;22.00;;;14.52;;
29984;SDS011;17387;42.690;23.328;2022-12-18T01:42:23;22.75;;;15.48;;
29984;SDS011;17387;42.690;23.328;2022-12-18T01:47:43;21.15;;;13.98;;
29984;SDS011;17387;42.690;23.328;2022-12-18T01:50:16;19.90;;;12.93;;
29984;SDS011;17387;42.690;23.328;2022-12-18T01:52:49;21.58;;;13.10;;
29984;SDS011;17387;42.690;23.328;2022-12-18T01:55:18;21.23;;;13.65;;
29984;SDS011;17387;42.690;23.328;2022-12-18T01:57:45;23.65;;;13.00;;
29984;SDS011;17387;42.690;23.328;2022-12-18T02:00:13;21.25;;;14.43;;
29984;SDS011;17387;42.690;23.328;2022-12-18T02:02:41;23.15;;;13.57;;
29984;SDS011;17387;42.690;23.328;2022-12-18T02:05:08;20.25;;;12.95;;
29984;SDS011;17387;42.690;23.328;2022-12-18T02:15:27;18.08;;;11.80;;
29984;SDS011;17387;42.690;23.328;2022-12-18T02:18:14;19.30;;;12.82;;
29984;SDS011;17387;42.690;23.328;2022-12-18T02:21:02;17.83;;;12.30;;
29984;SDS011;17387;42.690;23.328;2022-12-18T02:26:57;16.45;;;11.10;;
29984;SDS011;17387;42.690;23.328;2022-12-18T02:29:26;15.88;;;10.70;;
29984;SDS011;17387;42.690;23.328;2022-12-18T02:31:57;15.40;;;10.50;;
29984;SDS011;17387;42.690;23.328;2022-12-18T02:34:26;21.88;;;11.50;;
29984;SDS011;17387;42.690;23.328;2022-12-18T02:36:54;17.67;;;10.80;;
29984;SDS011;17387;42.690;23.328;2022-12-18T02:39:22;17.95;;;12.15;;
29984;SDS011;17387;42.690;23.328;2022-12-18T02:41:50;16.88;;;12.40;;
29984;SDS011;17387;42.690;23.328;2022-12-18T02:44:16;17.92;;;12.52;;
29984;SDS011;17387;42.690;23.328;2022-12-18T02:46:45;19.25;;;12.43;;
29984;SDS011;17387;42.690;23.328;2022-12-18T03:00:14;19.55;;;13.77;;
29984;SDS011;17387;42.690;23.328;2022-12-18T03:05:25;18.73;;;12.80;;
29984;SDS011;17387;42.690;23.328;2022-12-18T03:07:57;22.15;;;13.98;;
29984;SDS011;17387;42.690;23.328;2022-12-18T03:10:28;24.30;;;13.80;;
29984;SDS011;17387;42.690;23.328;2022-12-18T03:13:03;19.83;;;14.05;;
29984;SDS011;17387;42.690;23.328;2022-12-18T03:15:36;19.52;;;12.43;;
29984;SDS011;17387;42.690;23.328;2022-12-18T03:18:15;18.88;;;12.55;;
29984;SDS011;17387;42.690;23.328;2022-12-18T03:20:44;20.90;;;13.30;;
29984;SDS011;17387;42.690;23.328;2022-12-18T03:23:15;22.00;;;13.80;;
29984;SDS011;17387;42.690;23.328;2022-12-18T03:25:43;21.52;;;13.07;;
29984;SDS011;17387;42.690;23.328;2022-12-18T03:28:14;20.02;;;13.00;;
29984;SDS011;17387;42.690;23.328;2022-12-18T03:30:44;18.75;;;13.32;;
29984;SDS011;17387;42.690;23.328;2022-12-18T03:35:49;21.25;;;12.48;;
29984;SDS011;17387;42.690;23.328;2022-12-18T03:38:14;20.73;;;13.20;;
29984;SDS011;17387;42.690;23.328;2022-12-18T03:46:49;18.13;;;11.23;;
29984;SDS011;17387;42.690;23.328;2022-12-18T03:49:38;18.38;;;12.52;;
29984;SDS011;17387;42.690;23.328;2022-12-18T03:55:01;18.30;;;12.02;;
29984;SDS011;17387;42.690;23.328;2022-12-18T03:57:28;19.27;;;11.65;;
29984;SDS011;17387;42.690;23.328;2022-12-18T03:59:57;19.08;;;12.00;;
29984;SDS011;17387;42.690;23.328;2022-12-18T04:02:27;18.90;;;11.98;;
29984;SDS011;17387;42.690;23.328;2022-12-18T04:04:56;18.13;;;12.45;;
29984;SDS011;17387;42.690;23.328;2022-12-18T04:07:26;20.23;;;12.30;;
29984;SDS011;17387;42.690;23.328;2022-12-18T04:09:53;18.08;;;11.85;;
29984;SDS011;17387;42.690;23.328;2022-12-18T04:12:23;19.48;;;12.38;;
29984;SDS011;17387;42.690;23.328;2022-12-18T04:14:50;22.02;;;13.25;;
29984;SDS011;17387;42.690;23.328;2022-12-18T04:17:18;21.73;;;13.60;;
29984;SDS011;17387;42.690;23.328;2022-12-18T04:19:44;23.10;;;13.38;;
29984;SDS011;17387;42.690;23.328;2022-12-18T04:22:10;22.40;;;13.77;;
29984;SDS011;17387;42.690;23.328;2022-12-18T04:24:35;22.13;;;12.80;;
29984;SDS011;17387;42.690;23.328;2022-12-18T04:27:01;21.90;;;13.38;;
29984;SDS011;17387;42.690;23.328;2022-12-18T04:29:27;22.98;;;13.18;;
29984;SDS011;17387;42.690;23.328;2022-12-18T04:31:53;21.85;;;14.35;;
29984;SDS011;17387;42.690;23.328;2022-12-18T04:34:19;25.35;;;13.50;;
29984;SDS011;17387;42.690;23.328;2022-12-18T04:36:45;21.20;;;13.85;;
29984;SDS011;17387;42.690;23.328;2022-12-18T04:39:10;24.63;;;14.32;;
29984;SDS011;17387;42.690;23.328;2022-12-18T04:41:36;22.90;;;14.07;;
29984;SDS011;17387;42.690;23.328;2022-12-18T04:44:01;24.10;;;14.00;;
29984;SDS011;17387;42.690;23.328;2022-12-18T04:46:26;26.92;;;14.93;;
29984;SDS011;17387;42.690;23.328;2022-12-18T04:48:52;24.30;;;15.20;;
29984;SDS011;17387;42.690;23.328;2022-12-18T04:51:17;21.08;;;11.85;;
29984;SDS011;17387;42.690;23.328;2022-12-18T04:53:43;24.00;;;15.13;;
29984;SDS011;17387;42.690;23.328;2022-12-18T04:56:09;27.05;;;14.95;;
29984;SDS011;17387;42.690;23.328;2022-12-18T04:58:37;24.65;;;15.65;;
29984;SDS011;17387;42.690;23.328;2022-12-18T05:01:04;26.25;;;15.88;;
29984;SDS011;17387;42.690;23.328;2022-12-18T05:03:29;26.42;;;15.60;;
29984;SDS011;17387;42.690;23.328;2022-12-18T05:05:55;29.25;;;17.08;;
29984;SDS011;17387;42.690;23.328;2022-12-18T05:08:21;29.63;;;17.23;;
29984;SDS011;17387;42.690;23.328;2022-12-18T05:10:46;29.98;;;16.92;;
29984;SDS011;17387;42.690;23.328;2022-12-18T05:13:12;27.83;;;16.45;;
29984;SDS011;17387;42.690;23.328;2022-12-18T05:15:37;29.17;;;17.75;;
29984;SDS011;17387;42.690;23.328;2022-12-18T05:18:03;27.50;;;16.77;;
29984;SDS011;17387;42.690;23.328;2022-12-18T05:20:29;29.75;;;18.67;;
29984;SDS011;17387;42.690;23.328;2022-12-18T05:22:55;28.90;;;17.77;;
29984;SDS011;17387;42.690;23.328;2022-12-18T05:25:21;30.95;;;18.00;;
29984;SDS011;17387;42.690;23.328;2022-12-18T05:27:47;29.63;;;17.88;;
29984;SDS011;17387;42.690;23.328;2022-12-18T05:30:13;30.67;;;18.83;;
29984;SDS011;17387;42.690;23.328;2022-12-18T05:32:39;28.73;;;17.23;;
29984;SDS011;17387;42.690;23.328;2022-12-18T05:35:05;29.55;;;18.42;;
29984;SDS011;17387;42.690;23.328;2022-12-18T05:37:32;30.50;;;17.23;;
29984;SDS011;17387;42.690;23.328;2022-12-18T05:39:58;30.73;;;18.17;;
29984;SDS011;17387;42.690;23.328;2022-12-18T05:42:24;25.35;;;14.10;;
29984;SDS011;17387;42.690;23.328;2022-12-18T05:44:49;32.22;;;18.08;;
29984;SDS011;17387;42.690;23.328;2022-12-18T05:47:14;30.52;;;17.42;;
29984;SDS011;17387;42.690;23.328;2022-12-18T05:49:40;30.73;;;16.20;;
29984;SDS011;17387;42.690;23.328;2022-12-18T05:52:05;30.90;;;17.52;;
29984;SDS011;17387;42.690;23.328;2022-12-18T05:54:31;30.15;;;18.17;;
29984;SDS011;17387;42.690;23.328;2022-12-18T05:56:56;29.63;;;16.17;;
29984;SDS011;17387;42.690;23.328;2022-12-18T05:59:22;29.60;;;16.77;;
29984;SDS011;17387;42.690;23.328;2022-12-18T06:01:48;30.48;;;16.70;;
29984;SDS011;17387;42.690;23.328;2022-12-18T06:04:13;29.90;;;17.75;;
29984;SDS011;17387;42.690;23.328;2022-12-18T06:06:39;28.05;;;16.33;;
29984;SDS011;17387;42.690;23.328;2022-12-18T06:09:04;30.30;;;18.15;;
29984;SDS011;17387;42.690;23.328;2022-12-18T06:11:35;32.35;;;17.42;;
29984;SDS011;17387;42.690;23.328;2022-12-18T06:14:01;32.20;;;17.35;;
29984;SDS011;17387;42.690;23.328;2022-12-18T06:16:29;34.38;;;18.60;;
29984;SDS011;17387;42.690;23.328;2022-12-18T06:18:56;33.33;;;17.73;;
29984;SDS011;17387;42.690;23.328;2022-12-18T06:21:22;32.38;;;19.17;;
29984;SDS011;17387;42.690;23.328;2022-12-18T06:23:47;32.25;;;18.10;;
29984;SDS011;17387;42.690;23.328;2022-12-18T06:26:13;31.80;;;18.70;;
29984;SDS011;17387;42.690;23.328;2022-12-18T06:28:38;33.30;;;18.40;;
29984;SDS011;17387;42.690;23.328;2022-12-18T06:31:04;34.47;;;19.15;;
29984;SDS011;17387;42.690;23.328;2022-12-18T06:33:30;34.55;;;19.95;;
29984;SDS011;17387;42.690;23.328;2022-12-18T06:36:00;32.60;;;18.70;;
29984;SDS011;17387;42.690;23.328;2022-12-18T06:38:32;34.33;;;19.77;;
29984;SDS011;17387;42.690;23.328;2022-12-18T06:40:58;31.92;;;17.30;;
29984;SDS011;17387;42.690;23.328;2022-12-18T06:43:24;33.00;;;19.48;;
29984;SDS011;17387;42.690;23.328;2022-12-18T06:45:49;31.27;;;17.45;;
29984;SDS011;17387;42.690;23.328;2022-12-18T06:48:20;29.42;;;17.13;;
29984;SDS011;17387;42.690;23.328;2022-12-18T06:50:45;34.97;;;17.98;;
29984;SDS011;17387;42.690;23.328;2022-12-18T06:53:11;32.30;;;19.55;;
29984;SDS011;17387;42.690;23.328;2022-12-18T06:55:36;29.13;;;17.00;;
29984;SDS011;17387;42.690;23.328;2022-12-18T06:58:02;28.83;;;16.92;;
29984;SDS011;17387;42.690;23.328;2022-12-18T07:00:27;29.73;;;17.63;;
29984;SDS011;17387;42.690;23.328;2022-12-18T07:02:53;26.77;;;14.23;;
29984;SDS011;17387;42.690;23.328;2022-12-18T07:05:21;26.80;;;15.77;;
29984;SDS011;17387;42.690;23.328;2022-12-18T07:07:46;27.17;;;15.57;;
29984;SDS011;17387;42.690;23.328;2022-12-18T07:10:12;27.25;;;15.60;;
29984;SDS011;17387;42.690;23.328;2022-12-18T07:12:37;28.33;;;15.30;;
29984;SDS011;17387;42.690;23.328;2022-12-18T07:15:02;32.92;;;18.73;;
29984;SDS011;17387;42.690;23.328;2022-12-18T07:17:28;32.45;;;17.95;;
29984;SDS011;17387;42.690;23.328;2022-12-18T07:19:54;33.10;;;18.70;;
29984;SDS011;17387;42.690;23.328;2022-12-18T07:22:20;34.17;;;19.85;;
29984;SDS011;17387;42.690;23.328;2022-12-18T07:24:45;32.45;;;19.73;;
29984;SDS011;17387;42.690;23.328;2022-12-18T07:27:10;35.95;;;20.48;;
29984;SDS011;17387;42.690;23.328;2022-12-18T07:29:36;41.10;;;22.95;;
29984;SDS011;17387;42.690;23.328;2022-12-18T07:32:01;39.08;;;20.80;;
29984;SDS011;17387;42.690;23.328;2022-12-18T07:34:26;40.55;;;23.02;;
29984;SDS011;17387;42.690;23.328;2022-12-18T07:36:52;37.00;;;20.38;;
29984;SDS011;17387;42.690;23.328;2022-12-18T07:39:17;39.38;;;22.15;;
29984;SDS011;17387;42.690;23.328;2022-12-18T07:41:43;39.25;;;23.08;;
29984;SDS011;17387;42.690;23.328;2022-12-18T07:44:11;40.05;;;21.20;;
29984;SDS011;17387;42.690;23.328;2022-12-18T07:46:37;40.63;;;21.77;;
29984;SDS011;17387;42.690;23.328;2022-12-18T07:49:03;42.95;;;23.05;;
29984;SDS011;17387;42.690;23.328;2022-12-18T07:51:28;42.10;;;21.80;;
29984;SDS011;17387;42.690;23.328;2022-12-18T07:53:54;42.55;;;24.05;;
29984;SDS011;17387;42.690;23.328;2022-12-18T07:56:19;41.53;;;23.80;;
29984;SDS011;17387;42.690;23.328;2022-12-18T07:58:48;41.65;;;22.52;;
29984;SDS011;17387;42.690;23.328;2022-12-18T08:01:13;41.15;;;21.73;;
29984;SDS011;17387;42.690;23.328;2022-12-18T08:03:39;40.17;;;22.73;;
29984;SDS011;17387;42.690;23.328;2022-12-18T08:06:06;44.55;;;24.73;;
29984;SDS011;17387;42.690;23.328;2022-12-18T08:08:34;46.17;;;25.02;;
29984;SDS011;17387;42.690;23.328;2022-12-18T08:11:00;44.65;;;24.67;;
29984;SDS011;17387;42.690;23.328;2022-12-18T08:13:26;46.53;;;24.70;;
29984;SDS011;17387;42.690;23.328;2022-12-18T08:15:57;41.55;;;24.30;;
29984;SDS011;17387;42.690;23.328;2022-12-18T08:18:24;37.20;;;20.63;;
29984;SDS011;17387;42.690;23.328;2022-12-18T08:20:50;45.42;;;25.70;;
29984;SDS011;17387;42.690;23.328;2022-12-18T08:23:16;46.83;;;25.20;;
29984;SDS011;17387;42.690;23.328;2022-12-18T08:25:41;49.75;;;25.52;;
29984;SDS011;17387;42.690;23.328;2022-12-18T08:28:06;41.28;;;23.73;;
29984;SDS011;17387;42.690;23.328;2022-12-18T08:30:32;40.05;;;22.15;;
29984;SDS011;17387;42.690;23.328;2022-12-18T08:32:57;37.38;;;22.08;;
29984;SDS011;17387;42.690;23.328;2022-12-18T08:35:23;37.08;;;21.33;;
29984;SDS011;17387;42.690;23.328;2022-12-18T08:37:48;43.03;;;23.45;;
29984;SDS011;17387;42.690;23.328;2022-12-18T08:40:13;40.20;;;23.20;;
29984;SDS011;17387;42.690;23.328;2022-12-18T08:42:39;44.00;;;23.42;;
29984;SDS011;17387;42.690;23.328;2022-12-18T08:45:23;37.92;;;20.92;;
29984;SDS011;17387;42.690;23.328;2022-12-18T08:47:49;39.95;;;22.65;;
29984;SDS011;17387;42.690;23.328;2022-12-18T08:50:15;40.50;;;22.50;;
29984;SDS011;17387;42.690;23.328;2022-12-18T08:52:40;43.30;;;24.27;;
29984;SDS011;17387;42.690;23.328;2022-12-18T08:55:06;41.60;;;22.60;;
29984;SDS011;17387;42.690;23.328;2022-12-18T08:57:32;35.40;;;20.30;;
29984;SDS011;17387;42.690;23.328;2022-12-18T08:59:57;39.17;;;19.95;;
29984;SDS011;17387;42.690;23.328;2022-12-18T09:02:22;37.35;;;20.02;;
29984;SDS011;17387;42.690;23.328;2022-12-18T09:04:48;29.23;;;16.45;;
29984;SDS011;17387;42.690;23.328;2022-12-18T09:07:13;37.42;;;18.35;;
29984;SDS011;17387;42.690;23.328;2022-12-18T09:09:39;35.50;;;18.98;;
29984;SDS011;17387;42.690;23.328;2022-12-18T09:12:04;37.75;;;19.33;;
29984;SDS011;17387;42.690;23.328;2022-12-18T09:14:30;33.97;;;19.63;;
29984;SDS011;17387;42.690;23.328;2022-12-18T09:16:55;31.30;;;16.27;;
29984;SDS011;17387;42.690;23.328;2022-12-18T09:19:20;34.15;;;18.05;;
29984;SDS011;17387;42.690;23.328;2022-12-18T09:21:46;34.10;;;18.77;;
29984;SDS011;17387;42.690;23.328;2022-12-18T09:24:12;34.97;;;20.50;;
29984;SDS011;17387;42.690;23.328;2022-12-18T09:26:38;33.97;;;18.38;;
29984;SDS011;17387;42.690;23.328;2022-12-18T09:29:04;36.40;;;19.38;;
29984;SDS011;17387;42.690;23.328;2022-12-18T09:31:29;35.47;;;18.13;;
29984;SDS011;17387;42.690;23.328;2022-12-18T09:33:55;32.88;;;18.83;;
29984;SDS011;17387;42.690;23.328;2022-12-18T09:36:21;29.77;;;14.90;;
29984;SDS011;17387;42.690;23.328;2022-12-18T09:38:47;34.55;;;18.83;;
29984;SDS011;17387;42.690;23.328;2022-12-18T09:46:38;34.95;;;19.27;;
29984;SDS011;17387;42.690;23.328;2022-12-18T09:49:11;32.58;;;17.98;;
29984;SDS011;17387;42.690;23.328;2022-12-18T09:51:41;35.05;;;18.55;;
29984;SDS011;17387;42.690;23.328;2022-12-18T09:54:22;36.38;;;19.90;;
29984;SDS011;17387;42.690;23.328;2022-12-18T09:56:51;32.78;;;18.38;;
29984;SDS011;17387;42.690;23.328;2022-12-18T09:59:27;33.75;;;18.45;;
29984;SDS011;17387;42.690;23.328;2022-12-18T10:01:58;35.28;;;17.30;;
29984;SDS011;17387;42.690;23.328;2022-12-18T10:04:24;31.63;;;17.10;;
29984;SDS011;17387;42.690;23.328;2022-12-18T10:06:52;33.42;;;19.55;;
29984;SDS011;17387;42.690;23.328;2022-12-18T10:19:53;28.08;;;15.65;;
29984;SDS011;17387;42.690;23.328;2022-12-18T10:27:59;32.97;;;18.40;;
29984;SDS011;17387;42.690;23.328;2022-12-18T10:30:33;26.40;;;15.70;;
29984;SDS011;17387;42.690;23.328;2022-12-18T10:33:01;32.42;;;19.17;;
29984;SDS011;17387;42.690;23.328;2022-12-18T10:35:27;33.00;;;19.13;;
29984;SDS011;17387;42.690;23.328;2022-12-18T10:38:01;34.65;;;19.33;;
29984;SDS011;17387;42.690;23.328;2022-12-18T10:40:26;32.53;;;18.35;;
29984;SDS011;17387;42.690;23.328;2022-12-18T10:43:13;33.63;;;18.83;;
29984;SDS011;17387;42.690;23.328;2022-12-18T10:45:39;35.83;;;18.58;;
29984;SDS011;17387;42.690;23.328;2022-12-18T10:48:16;37.70;;;20.55;;
29984;SDS011;17387;42.690;23.328;2022-12-18T10:50:45;36.78;;;20.30;;
29984;SDS011;17387;42.690;23.328;2022-12-18T10:53:21;35.03;;;19.40;;
29984;SDS011;17387;42.690;23.328;2022-12-18T10:55:49;29.95;;;16.25;;
29984;SDS011;17387;42.690;23.328;2022-12-18T10:58:26;36.10;;;19.92;;
29984;SDS011;17387;42.690;23.328;2022-12-18T11:06:03;33.20;;;19.05;;
29984;SDS011;17387;42.690;23.328;2022-12-18T11:08:34;34.80;;;19.63;;
29984;SDS011;17387;42.690;23.328;2022-12-18T11:11:00;29.20;;;16.83;;
29984;SDS011;17387;42.690;23.328;2022-12-18T11:13:26;32.38;;;18.35;;
29984;SDS011;17387;42.690;23.328;2022-12-18T11:15:54;45.55;;;22.52;;
29984;SDS011;17387;42.690;23.328;2022-12-18T11:18:31;32.28;;;17.63;;
29984;SDS011;17387;42.690;23.328;2022-12-18T11:21:05;31.77;;;18.13;;
29984;SDS011;17387;42.690;23.328;2022-12-18T11:23:33;33.08;;;19.23;;
29984;SDS011;17387;42.690;23.328;2022-12-18T11:26:03;34.53;;;20.15;;
29984;SDS011;17387;42.690;23.328;2022-12-18T11:31:22;36.10;;;19.65;;
29984;SDS011;17387;42.690;23.328;2022-12-18T11:34:11;36.92;;;18.92;;
29984;SDS011;17387;42.690;23.328;2022-12-18T11:36:47;35.95;;;19.98;;
29984;SDS011;17387;42.690;23.328;2022-12-18T11:39:24;37.83;;;21.00;;
29984;SDS011;17387;42.690;23.328;2022-12-18T11:47:42;25.85;;;13.27;;
29984;SDS011;17387;42.690;23.328;2022-12-18T11:53:24;36.40;;;19.77;;
29984;SDS011;17387;42.690;23.328;2022-12-18T11:55:56;35.55;;;19.15;;
29984;SDS011;17387;42.690;23.328;2022-12-18T12:28:36;33.55;;;19.10;;
29984;SDS011;17387;42.690;23.328;2022-12-18T12:36:49;36.55;;;21.05;;
29984;SDS011;17387;42.690;23.328;2022-12-18T12:39:30;32.55;;;18.08;;
29984;SDS011;17387;42.690;23.328;2022-12-18T12:42:00;35.47;;;19.23;;
29984;SDS011;17387;42.690;23.328;2022-12-18T12:44:48;34.15;;;19.52;;
29984;SDS011;17387;42.690;23.328;2022-12-18T12:47:27;35.28;;;20.92;;
29984;SDS011;17387;42.690;23.328;2022-12-18T12:49:58;40.08;;;20.95;;
29984;SDS011;17387;42.690;23.328;2022-12-18T12:54:58;36.15;;;20.10;;
29984;SDS011;17387;42.690;23.328;2022-12-18T12:57:46;36.03;;;19.63;;
29984;SDS011;17387;42.690;23.328;2022-12-18T13:00:20;37.13;;;20.70;;
29984;SDS011;17387;42.690;23.328;2022-12-18T13:08:07;32.47;;;19.20;;
29984;SDS011;17387;42.690;23.328;2022-12-18T13:15:34;34.88;;;19.63;;
29984;SDS011;17387;42.690;23.328;2022-12-18T13:20:35;34.42;;;18.75;;
29984;SDS011;17387;42.690;23.328;2022-12-18T13:34:21;34.20;;;17.85;;
29984;SDS011;17387;42.690;23.328;2022-12-18T13:36:49;39.40;;;21.33;;
29984;SDS011;17387;42.690;23.328;2022-12-18T13:41:51;37.50;;;20.77;;
29984;SDS011;17387;42.690;23.328;2022-12-18T13:47:26;39.08;;;22.17;;
29984;SDS011;17387;42.690;23.328;2022-12-18T13:49:56;34.47;;;20.33;;
29984;SDS011;17387;42.690;23.328;2022-12-18T13:52:24;37.35;;;21.20;;
29984;SDS011;17387;42.690;23.328;2022-12-18T13:54:56;36.95;;;20.58;;
29984;SDS011;17387;42.690;23.328;2022-12-18T13:57:43;34.10;;;18.70;;
29984;SDS011;17387;42.690;23.328;2022-12-18T14:02:53;40.88;;;20.58;;
29984;SDS011;17387;42.690;23.328;2022-12-18T14:05:22;33.03;;;19.27;;
29984;SDS011;17387;42.690;23.328;2022-12-18T14:07:48;33.38;;;17.58;;
29984;SDS011;17387;42.690;23.328;2022-12-18T14:10:14;32.63;;;18.33;;
29984;SDS011;17387;42.690;23.328;2022-12-18T14:12:44;33.85;;;18.45;;
29984;SDS011;17387;42.690;23.328;2022-12-18T14:15:26;32.45;;;17.08;;
29984;SDS011;17387;42.690;23.328;2022-12-18T14:18:13;32.50;;;17.45;;
29984;SDS011;17387;42.690;23.328;2022-12-18T14:20:54;30.00;;;16.85;;
29984;SDS011;17387;42.690;23.328;2022-12-18T14:23:27;29.05;;;17.52;;
29984;SDS011;17387;42.690;23.328;2022-12-18T14:25:55;28.52;;;16.60;;
29984;SDS011;17387;42.690;23.328;2022-12-18T14:28:23;31.92;;;17.60;;
29984;SDS011;17387;42.690;23.328;2022-12-18T14:30:50;31.48;;;17.80;;
29984;SDS011;17387;42.690;23.328;2022-12-18T14:38:35;33.08;;;16.95;;
29984;SDS011;17387;42.690;23.328;2022-12-18T14:41:03;32.15;;;17.75;;
29984;SDS011;17387;42.690;23.328;2022-12-18T14:43:32;30.55;;;17.30;;
29984;SDS011;17387;42.690;23.328;2022-12-18T14:45:59;29.17;;;16.10;;
29984;SDS011;17387;42.690;23.328;2022-12-18T14:53:34;29.27;;;15.43;;
29984;SDS011;17387;42.690;23.328;2022-12-18T14:56:03;30.95;;;16.15;;
29984;SDS011;17387;42.690;23.328;2022-12-18T14:58:37;30.27;;;16.35;;
29984;SDS011;17387;42.690;23.328;2022-12-18T15:01:02;30.20;;;16.00;;
29984;SDS011;17387;42.690;23.328;2022-12-18T15:03:28;27.75;;;15.65;;
29984;SDS011;17387;42.690;23.328;2022-12-18T15:05:53;27.52;;;15.60;;
29984;SDS011;17387;42.690;23.328;2022-12-18T15:08:27;27.83;;;14.30;;
29984;SDS011;17387;42.690;23.328;2022-12-18T15:10:55;26.38;;;14.30;;
29984;SDS011;17387;42.690;23.328;2022-12-18T15:13:22;26.27;;;13.95;;
29984;SDS011;17387;42.690;23.328;2022-12-18T15:15:49;25.10;;;11.82;;
29984;SDS011;17387;42.690;23.328;2022-12-18T15:18:17;27.35;;;15.70;;
29984;SDS011;17387;42.690;23.328;2022-12-18T15:26:23;26.00;;;14.50;;
29984;SDS011;17387;42.690;23.328;2022-12-18T15:28:52;27.83;;;15.60;;
29984;SDS011;17387;42.690;23.328;2022-12-18T15:31:29;26.00;;;13.82;;
29984;SDS011;17387;42.690;23.328;2022-12-18T15:34:13;28.77;;;15.93;;
29984;SDS011;17387;42.690;23.328;2022-12-18T15:36:45;26.85;;;14.45;;
29984;SDS011;17387;42.690;23.328;2022-12-18T15:39:11;27.20;;;14.32;;
29984;SDS011;17387;42.690;23.328;2022-12-18T15:41:38;28.95;;;15.82;;
29984;SDS011;17387;42.690;23.328;2022-12-18T15:44:15;29.98;;;15.70;;
29984;SDS011;17387;42.690;23.328;2022-12-18T15:46:47;28.17;;;15.70;;
29984;SDS011;17387;42.690;23.328;2022-12-18T15:49:13;27.20;;;16.13;;
29984;SDS011;17387;42.690;23.328;2022-12-18T15:51:38;30.92;;;16.15;;
29984;SDS011;17387;42.690;23.328;2022-12-18T15:54:04;29.52;;;16.10;;
29984;SDS011;17387;42.690;23.328;2022-12-18T15:56:36;27.50;;;15.95;;
29984;SDS011;17387;42.690;23.328;2022-12-18T15:59:20;33.85;;;17.13;;
29984;SDS011;17387;42.690;23.328;2022-12-18T16:01:47;34.67;;;18.50;;
29984;SDS011;17387;42.690;23.328;2022-12-18T16:04:15;31.23;;;17.15;;
29984;SDS011;17387;42.690;23.328;2022-12-18T16:06:42;32.65;;;17.20;;
29984;SDS011;17387;42.690;23.328;2022-12-18T16:09:08;32.38;;;17.38;;
29984;SDS011;17387;42.690;23.328;2022-12-18T16:11:34;31.80;;;17.95;;
29984;SDS011;17387;42.690;23.328;2022-12-18T16:16:39;32.13;;;17.40;;
29984;SDS011;17387;42.690;23.328;2022-12-18T16:19:04;37.13;;;18.40;;
29984;SDS011;17387;42.690;23.328;2022-12-18T16:21:30;35.78;;;19.08;;
29984;SDS011;17387;42.690;23.328;2022-12-18T16:23:55;31.85;;;16.85;;
29984;SDS011;17387;42.690;23.328;2022-12-18T16:26:21;33.10;;;18.10;;
29984;SDS011;17387;42.690;23.328;2022-12-18T16:28:46;35.05;;;18.92;;
29984;SDS011;17387;42.690;23.328;2022-12-18T16:31:11;37.58;;;19.35;;
29984;SDS011;17387;42.690;23.328;2022-12-18T16:33:37;35.83;;;19.02;;
29984;SDS011;17387;42.690;23.328;2022-12-18T16:36:02;36.30;;;19.70;;
29984;SDS011;17387;42.690;23.328;2022-12-18T16:38:28;36.67;;;18.80;;
29984;SDS011;17387;42.690;23.328;2022-12-18T16:40:53;35.25;;;18.17;;
29984;SDS011;17387;42.690;23.328;2022-12-18T16:43:37;39.50;;;19.60;;
29984;SDS011;17387;42.690;23.328;2022-12-18T16:46:02;37.90;;;19.65;;
29984;SDS011;17387;42.690;23.328;2022-12-18T16:48:28;42.55;;;20.17;;
29984;SDS011;17387;42.690;23.328;2022-12-18T16:51:00;41.28;;;20.17;;
29984;SDS011;17387;42.690;23.328;2022-12-18T16:53:27;35.10;;;20.45;;
29984;SDS011;17387;42.690;23.328;2022-12-18T16:55:55;41.95;;;19.92;;
29984;SDS011;17387;42.690;23.328;2022-12-18T16:58:21;37.40;;;19.85;;
29984;SDS011;17387;42.690;23.328;2022-12-18T17:00:47;36.97;;;18.98;;
29984;SDS011;17387;42.690;23.328;2022-12-18T17:03:12;41.45;;;20.88;;